sensor_id;sensor_type;location;lat;lon;timestamp;temperature;humidity
22968;DHT22;11650;48.106;-1.696;2022-07-18T00:01:38;26.60;84.70
22968;DHT22;11650;48.106;-1.696;2022-07-18T00:04:04;26.50;84.80
22968;DHT22;11650;48.106;-1.696;2022-07-18T00:06:29;26.50;84.70
22968;DHT22;11650;48.106;-1.696;2022-07-18T00:08:55;26.50;84.30
22968;DHT22;11650;48.106;-1.696;2022-07-18T00:11:22;26.50;84.40
22968;DHT22;11650;48.106;-1.696;2022-07-18T00:13:48;26.50;84.30
22968;DHT22;11650;48.106;-1.696;2022-07-18T00:16:15;26.50;84.30
22968;DHT22;11650;48.106;-1.696;2022-07-18T00:18:41;26.40;84.40
22968;DHT22;11650;48.106;-1.696;2022-07-18T00:21:07;26.30;84.40
22968;DHT22;11650;48.106;-1.696;2022-07-18T00:23:33;26.30;84.50
22968;DHT22;11650;48.106;-1.696;2022-07-18T00:25:58;26.30;84.60
22968;DHT22;11650;48.106;-1.696;2022-07-18T00:28:24;26.30;84.60
22968;DHT22;11650;48.106;-1.696;2022-07-18T00:30:50;26.20;84.30
22968;DHT22;11650;48.106;-1.696;2022-07-18T00:33:15;26.20;84.40
22968;DHT22;11650;48.106;-1.696;2022-07-18T00:35:41;26.10;84.10
22968;DHT22;11650;48.106;-1.696;2022-07-18T00:38:07;26.10;84.10
22968;DHT22;11650;48.106;-1.696;2022-07-18T00:40:33;26.10;84.30
22968;DHT22;11650;48.106;-1.696;2022-07-18T00:42:58;26.10;84.40
22968;DHT22;11650;48.106;-1.696;2022-07-18T00:45:24;26.00;84.60
22968;DHT22;11650;48.106;-1.696;2022-07-18T00:47:50;25.90;84.60
22968;DHT22;11650;48.106;-1.696;2022-07-18T00:50:20;25.90;84.90
22968;DHT22;11650;48.106;-1.696;2022-07-18T00:52:47;26.00;84.70
22968;DHT22;11650;48.106;-1.696;2022-07-18T00:55:13;25.90;84.70
22968;DHT22;11650;48.106;-1.696;2022-07-18T00:57:40;25.80;84.80
22968;DHT22;11650;48.106;-1.696;2022-07-18T01:00:12;25.80;84.80
22968;DHT22;11650;48.106;-1.696;2022-07-18T01:02:57;25.80;84.80
22968;DHT22;11650;48.106;-1.696;2022-07-18T01:05:23;25.80;84.70
22968;DHT22;11650;48.106;-1.696;2022-07-18T01:07:49;25.80;84.70
22968;DHT22;11650;48.106;-1.696;2022-07-18T01:10:17;25.90;84.50
22968;DHT22;11650;48.106;-1.696;2022-07-18T01:12:44;25.80;84.60
22968;DHT22;11650;48.106;-1.696;2022-07-18T01:15:10;25.80;84.40
22968;DHT22;11650;48.106;-1.696;2022-07-18T01:17:36;25.80;84.60
22968;DHT22;11650;48.106;-1.696;2022-07-18T01:20:04;25.70;84.60
22968;DHT22;11650;48.106;-1.696;2022-07-18T01:22:30;25.70;84.80
22968;DHT22;11650;48.106;-1.696;2022-07-18T01:24:56;25.60;85.00
22968;DHT22;11650;48.106;-1.696;2022-07-18T01:27:22;25.60;85.10
22968;DHT22;11650;48.106;-1.696;2022-07-18T01:29:50;25.50;85.20
22968;DHT22;11650;48.106;-1.696;2022-07-18T01:32:16;25.50;85.20
22968;DHT22;11650;48.106;-1.696;2022-07-18T01:34:44;25.40;85.40
22968;DHT22;11650;48.106;-1.696;2022-07-18T01:37:09;25.40;85.40
22968;DHT22;11650;48.106;-1.696;2022-07-18T01:39:35;25.40;85.60
22968;DHT22;11650;48.106;-1.696;2022-07-18T01:42:04;25.40;86.00
22968;DHT22;11650;48.106;-1.696;2022-07-18T01:44:30;25.40;86.00
22968;DHT22;11650;48.106;-1.696;2022-07-18T01:46:56;25.20;85.90
22968;DHT22;11650;48.106;-1.696;2022-07-18T01:49:22;25.30;86.00
22968;DHT22;11650;48.106;-1.696;2022-07-18T01:51:50;25.30;86.00
22968;DHT22;11650;48.106;-1.696;2022-07-18T01:54:18;25.20;86.40
22968;DHT22;11650;48.106;-1.696;2022-07-18T01:56:44;25.20;86.50
22968;DHT22;11650;48.106;-1.696;2022-07-18T01:59:10;25.10;86.90
22968;DHT22;11650;48.106;-1.696;2022-07-18T02:01:36;25.10;86.60
22968;DHT22;11650;48.106;-1.696;2022-07-18T02:04:02;25.00;86.80
22968;DHT22;11650;48.106;-1.696;2022-07-18T02:06:27;25.00;86.80
22968;DHT22;11650;48.106;-1.696;2022-07-18T02:08:53;25.00;87.20
22968;DHT22;11650;48.106;-1.696;2022-07-18T02:11:19;25.00;87.20
22968;DHT22;11650;48.106;-1.696;2022-07-18T02:13:44;24.80;87.50
22968;DHT22;11650;48.106;-1.696;2022-07-18T02:16:10;24.80;87.90
22968;DHT22;11650;48.106;-1.696;2022-07-18T02:18:36;24.80;87.80
22968;DHT22;11650;48.106;-1.696;2022-07-18T02:21:02;24.80;88.00
22968;DHT22;11650;48.106;-1.696;2022-07-18T02:23:28;24.70;88.10
22968;DHT22;11650;48.106;-1.696;2022-07-18T02:25:54;24.70;88.00
22968;DHT22;11650;48.106;-1.696;2022-07-18T02:28:20;24.70;87.80
22968;DHT22;11650;48.106;-1.696;2022-07-18T02:30:47;24.70;88.10
22968;DHT22;11650;48.106;-1.696;2022-07-18T02:33:14;24.70;88.10
22968;DHT22;11650;48.106;-1.696;2022-07-18T02:35:41;24.60;88.30
22968;DHT22;11650;48.106;-1.696;2022-07-18T02:38:07;24.60;88.40
22968;DHT22;11650;48.106;-1.696;2022-07-18T02:40:33;24.60;88.50
22968;DHT22;11650;48.106;-1.696;2022-07-18T02:42:59;24.60;88.60
22968;DHT22;11650;48.106;-1.696;2022-07-18T02:45:25;24.60;88.90
22968;DHT22;11650;48.106;-1.696;2022-07-18T02:47:51;24.60;88.60
22968;DHT22;11650;48.106;-1.696;2022-07-18T02:50:17;24.60;88.10
22968;DHT22;11650;48.106;-1.696;2022-07-18T02:52:43;24.60;89.10
22968;DHT22;11650;48.106;-1.696;2022-07-18T02:55:10;24.50;88.10
22968;DHT22;11650;48.106;-1.696;2022-07-18T02:57:36;24.60;88.20
22968;DHT22;11650;48.106;-1.696;2022-07-18T03:00:07;24.50;88.30
22968;DHT22;11650;48.106;-1.696;2022-07-18T03:02:33;24.40;88.30
22968;DHT22;11650;48.106;-1.696;2022-07-18T03:04:58;24.40;88.40
22968;DHT22;11650;48.106;-1.696;2022-07-18T03:07:24;24.40;88.70
22968;DHT22;11650;48.106;-1.696;2022-07-18T03:09:50;24.40;89.10
22968;DHT22;11650;48.106;-1.696;2022-07-18T03:12:16;24.30;89.20
22968;DHT22;11650;48.106;-1.696;2022-07-18T03:14:42;24.40;89.20
22968;DHT22;11650;48.106;-1.696;2022-07-18T03:17:08;24.30;89.30
22968;DHT22;11650;48.106;-1.696;2022-07-18T03:19:34;24.20;89.40
22968;DHT22;11650;48.106;-1.696;2022-07-18T03:22:00;24.20;89.50
22968;DHT22;11650;48.106;-1.696;2022-07-18T03:24:26;24.20;89.00
22968;DHT22;11650;48.106;-1.696;2022-07-18T03:26:51;24.20;89.00
22968;DHT22;11650;48.106;-1.696;2022-07-18T03:29:17;24.20;88.90
22968;DHT22;11650;48.106;-1.696;2022-07-18T03:31:42;24.20;88.80
22968;DHT22;11650;48.106;-1.696;2022-07-18T03:34:08;24.20;88.80
22968;DHT22;11650;48.106;-1.696;2022-07-18T03:36:34;24.20;89.00
22968;DHT22;11650;48.106;-1.696;2022-07-18T03:38:59;24.10;89.20
22968;DHT22;11650;48.106;-1.696;2022-07-18T03:41:25;24.10;89.20
22968;DHT22;11650;48.106;-1.696;2022-07-18T03:43:51;24.00;89.40
22968;DHT22;11650;48.106;-1.696;2022-07-18T03:46:16;23.90;89.40
22968;DHT22;11650;48.106;-1.696;2022-07-18T03:48:42;24.00;89.40
22968;DHT22;11650;48.106;-1.696;2022-07-18T03:51:08;23.90;89.20
22968;DHT22;11650;48.106;-1.696;2022-07-18T03:53:34;23.90;89.20
22968;DHT22;11650;48.106;-1.696;2022-07-18T03:55:59;23.80;89.40
22968;DHT22;11650;48.106;-1.696;2022-07-18T03:58:25;23.90;89.50
22968;DHT22;11650;48.106;-1.696;2022-07-18T04:00:51;23.80;89.50
22968;DHT22;11650;48.106;-1.696;2022-07-18T04:03:17;23.80;89.50
22968;DHT22;11650;48.106;-1.696;2022-07-18T04:05:44;23.80;89.60
22968;DHT22;11650;48.106;-1.696;2022-07-18T04:08:10;23.70;89.50
22968;DHT22;11650;48.106;-1.696;2022-07-18T04:10:35;23.70;89.60
22968;DHT22;11650;48.106;-1.696;2022-07-18T04:13:05;23.80;89.60
22968;DHT22;11650;48.106;-1.696;2022-07-18T04:15:32;23.70;89.90
22968;DHT22;11650;48.106;-1.696;2022-07-18T04:17:58;23.70;90.00
22968;DHT22;11650;48.106;-1.696;2022-07-18T04:20:24;23.70;89.80
22968;DHT22;11650;48.106;-1.696;2022-07-18T04:22:54;23.70;89.60
22968;DHT22;11650;48.106;-1.696;2022-07-18T04:25:23;23.70;89.60
22968;DHT22;11650;48.106;-1.696;2022-07-18T04:27:49;23.70;89.70
22968;DHT22;11650;48.106;-1.696;2022-07-18T04:30:18;23.60;90.00
22968;DHT22;11650;48.106;-1.696;2022-07-18T04:32:43;23.60;89.90
22968;DHT22;11650;48.106;-1.696;2022-07-18T04:35:09;23.70;90.00
22968;DHT22;11650;48.106;-1.696;2022-07-18T04:37:37;23.60;90.00
22968;DHT22;11650;48.106;-1.696;2022-07-18T04:40:04;23.60;89.90
22968;DHT22;11650;48.106;-1.696;2022-07-18T04:42:30;23.60;89.70
22968;DHT22;11650;48.106;-1.696;2022-07-18T04:44:56;23.60;89.90
22968;DHT22;11650;48.106;-1.696;2022-07-18T04:47:22;23.60;89.90
22968;DHT22;11650;48.106;-1.696;2022-07-18T04:49:48;23.60;89.90
22968;DHT22;11650;48.106;-1.696;2022-07-18T04:52:13;23.60;90.00
22968;DHT22;11650;48.106;-1.696;2022-07-18T04:54:39;23.60;90.00
22968;DHT22;11650;48.106;-1.696;2022-07-18T04:57:05;23.60;90.00
22968;DHT22;11650;48.106;-1.696;2022-07-18T04:59:30;23.60;90.00
22968;DHT22;11650;48.106;-1.696;2022-07-18T05:01:56;23.60;90.00
22968;DHT22;11650;48.106;-1.696;2022-07-18T05:04:22;23.60;90.00
22968;DHT22;11650;48.106;-1.696;2022-07-18T05:06:48;23.60;90.00
22968;DHT22;11650;48.106;-1.696;2022-07-18T05:09:14;23.70;90.10
22968;DHT22;11650;48.106;-1.696;2022-07-18T05:11:39;23.70;90.10
22968;DHT22;11650;48.106;-1.696;2022-07-18T05:14:05;23.80;90.10
22968;DHT22;11650;48.106;-1.696;2022-07-18T05:16:31;23.70;90.20
22968;DHT22;11650;48.106;-1.696;2022-07-18T05:18:56;23.80;90.40
22968;DHT22;11650;48.106;-1.696;2022-07-18T05:21:22;23.80;90.50
22968;DHT22;11650;48.106;-1.696;2022-07-18T05:23:47;23.70;91.10
22968;DHT22;11650;48.106;-1.696;2022-07-18T05:26:13;23.60;91.60
22968;DHT22;11650;48.106;-1.696;2022-07-18T05:28:39;23.60;92.00
22968;DHT22;11650;48.106;-1.696;2022-07-18T05:31:04;23.60;92.30
22968;DHT22;11650;48.106;-1.696;2022-07-18T05:33:30;23.60;92.30
22968;DHT22;11650;48.106;-1.696;2022-07-18T05:35:56;23.60;92.60
22968;DHT22;11650;48.106;-1.696;2022-07-18T05:38:21;23.60;92.70
22968;DHT22;11650;48.106;-1.696;2022-07-18T05:40:47;23.60;92.70
22968;DHT22;11650;48.106;-1.696;2022-07-18T05:43:13;23.80;92.50
22968;DHT22;11650;48.106;-1.696;2022-07-18T05:45:39;23.90;92.40
22968;DHT22;11650;48.106;-1.696;2022-07-18T05:48:05;23.90;92.20
22968;DHT22;11650;48.106;-1.696;2022-07-18T05:50:31;23.90;92.00
22968;DHT22;11650;48.106;-1.696;2022-07-18T05:52:56;24.00;91.90
22968;DHT22;11650;48.106;-1.696;2022-07-18T05:55:22;23.90;91.80
22968;DHT22;11650;48.106;-1.696;2022-07-18T05:57:48;24.00;91.80
22968;DHT22;11650;48.106;-1.696;2022-07-18T06:00:15;24.00;91.70
22968;DHT22;11650;48.106;-1.696;2022-07-18T06:02:41;24.10;91.60
22968;DHT22;11650;48.106;-1.696;2022-07-18T06:05:08;24.20;91.70
22968;DHT22;11650;48.106;-1.696;2022-07-18T06:07:34;24.30;91.40
22968;DHT22;11650;48.106;-1.696;2022-07-18T06:10:00;24.40;90.80
22968;DHT22;11650;48.106;-1.696;2022-07-18T06:12:29;24.50;90.70
22968;DHT22;11650;48.106;-1.696;2022-07-18T06:14:56;24.60;90.50
22968;DHT22;11650;48.106;-1.696;2022-07-18T06:17:22;24.60;90.20
22968;DHT22;11650;48.106;-1.696;2022-07-18T06:19:48;24.60;90.10
22968;DHT22;11650;48.106;-1.696;2022-07-18T06:22:13;24.70;90.20
22968;DHT22;11650;48.106;-1.696;2022-07-18T06:24:39;24.70;89.50
22968;DHT22;11650;48.106;-1.696;2022-07-18T06:27:04;24.70;89.40
22968;DHT22;11650;48.106;-1.696;2022-07-18T06:29:30;24.70;89.60
22968;DHT22;11650;48.106;-1.696;2022-07-18T06:31:56;24.80;89.50
22968;DHT22;11650;48.106;-1.696;2022-07-18T06:34:21;24.80;89.70
22968;DHT22;11650;48.106;-1.696;2022-07-18T06:36:47;24.90;89.40
22968;DHT22;11650;48.106;-1.696;2022-07-18T06:39:13;25.00;89.60
22968;DHT22;11650;48.106;-1.696;2022-07-18T06:41:41;25.00;89.30
22968;DHT22;11650;48.106;-1.696;2022-07-18T06:44:07;25.10;89.10
22968;DHT22;11650;48.106;-1.696;2022-07-18T06:46:33;25.10;89.00
22968;DHT22;11650;48.106;-1.696;2022-07-18T06:48:59;25.20;89.00
22968;DHT22;11650;48.106;-1.696;2022-07-18T06:51:24;25.40;88.80
22968;DHT22;11650;48.106;-1.696;2022-07-18T06:53:51;25.40;88.70
22968;DHT22;11650;48.106;-1.696;2022-07-18T06:56:17;25.50;89.50
22968;DHT22;11650;48.106;-1.696;2022-07-18T06:58:43;25.60;89.30
22968;DHT22;11650;48.106;-1.696;2022-07-18T07:01:14;25.70;88.70
22968;DHT22;11650;48.106;-1.696;2022-07-18T07:03:40;25.70;88.70
22968;DHT22;11650;48.106;-1.696;2022-07-18T07:06:06;25.70;88.20
22968;DHT22;11650;48.106;-1.696;2022-07-18T07:08:31;25.80;88.40
22968;DHT22;11650;48.106;-1.696;2022-07-18T07:10:57;25.90;87.80
22968;DHT22;11650;48.106;-1.696;2022-07-18T07:13:23;25.80;87.70
22968;DHT22;11650;48.106;-1.696;2022-07-18T07:15:48;25.90;87.50
22968;DHT22;11650;48.106;-1.696;2022-07-18T07:18:14;26.00;87.30
22968;DHT22;11650;48.106;-1.696;2022-07-18T07:20:39;26.10;87.20
22968;DHT22;11650;48.106;-1.696;2022-07-18T07:23:05;26.20;86.80
22968;DHT22;11650;48.106;-1.696;2022-07-18T07:25:33;26.30;87.30
22968;DHT22;11650;48.106;-1.696;2022-07-18T07:27:59;26.30;87.10
22968;DHT22;11650;48.106;-1.696;2022-07-18T07:30:25;26.20;87.40
22968;DHT22;11650;48.106;-1.696;2022-07-18T07:32:51;26.30;87.60
22968;DHT22;11650;48.106;-1.696;2022-07-18T07:35:17;26.40;87.60
22968;DHT22;11650;48.106;-1.696;2022-07-18T07:37:49;26.50;87.10
22968;DHT22;11650;48.106;-1.696;2022-07-18T07:40:16;26.40;87.20
22968;DHT22;11650;48.106;-1.696;2022-07-18T07:42:42;26.60;87.30
22968;DHT22;11650;48.106;-1.696;2022-07-18T07:45:09;26.70;87.10
22968;DHT22;11650;48.106;-1.696;2022-07-18T07:47:36;26.80;87.20
22968;DHT22;11650;48.106;-1.696;2022-07-18T07:50:02;26.90;87.10
22968;DHT22;11650;48.106;-1.696;2022-07-18T07:52:29;26.90;87.30
22968;DHT22;11650;48.106;-1.696;2022-07-18T07:54:55;27.10;87.00
22968;DHT22;11650;48.106;-1.696;2022-07-18T07:57:21;27.10;86.50
22968;DHT22;11650;48.106;-1.696;2022-07-18T07:59:46;27.30;86.50
22968;DHT22;11650;48.106;-1.696;2022-07-18T08:02:12;27.30;86.50
22968;DHT22;11650;48.106;-1.696;2022-07-18T08:04:38;27.40;86.60
22968;DHT22;11650;48.106;-1.696;2022-07-18T08:07:04;27.50;86.60
22968;DHT22;11650;48.106;-1.696;2022-07-18T08:09:29;27.70;86.00
22968;DHT22;11650;48.106;-1.696;2022-07-18T08:11:55;27.70;85.80
22968;DHT22;11650;48.106;-1.696;2022-07-18T08:14:22;27.90;85.40
22968;DHT22;11650;48.106;-1.696;2022-07-18T08:16:47;28.00;85.10
22968;DHT22;11650;48.106;-1.696;2022-07-18T08:19:13;28.10;85.10
22968;DHT22;11650;48.106;-1.696;2022-07-18T08:21:39;28.20;84.90
22968;DHT22;11650;48.106;-1.696;2022-07-18T08:24:04;28.40;85.00
22968;DHT22;11650;48.106;-1.696;2022-07-18T08:26:30;28.40;84.40
22968;DHT22;11650;48.106;-1.696;2022-07-18T08:28:56;28.50;84.00
22968;DHT22;11650;48.106;-1.696;2022-07-18T08:31:21;28.50;83.90
22968;DHT22;11650;48.106;-1.696;2022-07-18T08:33:47;28.60;83.70
22968;DHT22;11650;48.106;-1.696;2022-07-18T08:36:13;28.70;83.50
22968;DHT22;11650;48.106;-1.696;2022-07-18T08:38:39;28.90;83.30
22968;DHT22;11650;48.106;-1.696;2022-07-18T08:41:05;28.90;82.90
22968;DHT22;11650;48.106;-1.696;2022-07-18T08:43:31;29.00;82.60
22968;DHT22;11650;48.106;-1.696;2022-07-18T08:46:02;29.10;82.70
22968;DHT22;11650;48.106;-1.696;2022-07-18T08:48:29;29.20;82.00
22968;DHT22;11650;48.106;-1.696;2022-07-18T08:50:55;29.30;82.20
22968;DHT22;11650;48.106;-1.696;2022-07-18T08:53:21;29.40;81.50
22968;DHT22;11650;48.106;-1.696;2022-07-18T08:55:47;29.50;81.60
22968;DHT22;11650;48.106;-1.696;2022-07-18T08:58:14;29.60;81.30
22968;DHT22;11650;48.106;-1.696;2022-07-18T09:00:40;29.70;80.90
22968;DHT22;11650;48.106;-1.696;2022-07-18T09:03:07;29.80;81.00
22968;DHT22;11650;48.106;-1.696;2022-07-18T09:05:33;29.90;80.80
22968;DHT22;11650;48.106;-1.696;2022-07-18T09:08:17;30.10;81.00
22968;DHT22;11650;48.106;-1.696;2022-07-18T09:10:55;30.20;80.90
22968;DHT22;11650;48.106;-1.696;2022-07-18T09:13:25;30.20;79.70
22968;DHT22;11650;48.106;-1.696;2022-07-18T09:16:06;30.30;79.30
22968;DHT22;11650;48.106;-1.696;2022-07-18T09:21:09;30.80;79.00
22968;DHT22;11650;48.106;-1.696;2022-07-18T09:23:40;30.80;78.40
22968;DHT22;11650;48.106;-1.696;2022-07-18T09:26:06;30.90;78.40
22968;DHT22;11650;48.106;-1.696;2022-07-18T09:28:49;31.00;78.10
22968;DHT22;11650;48.106;-1.696;2022-07-18T09:31:23;31.00;77.80
22968;DHT22;11650;48.106;-1.696;2022-07-18T09:34:08;31.20;77.20
22968;DHT22;11650;48.106;-1.696;2022-07-18T09:36:34;31.30;77.20
22968;DHT22;11650;48.106;-1.696;2022-07-18T09:39:19;31.40;76.00
22968;DHT22;11650;48.106;-1.696;2022-07-18T09:41:46;31.50;75.50
22968;DHT22;11650;48.106;-1.696;2022-07-18T09:44:15;31.70;74.80
22968;DHT22;11650;48.106;-1.696;2022-07-18T09:47:00;31.80;74.10
22968;DHT22;11650;48.106;-1.696;2022-07-18T09:49:33;31.90;73.00
22968;DHT22;11650;48.106;-1.696;2022-07-18T09:52:07;32.00;73.10
22968;DHT22;11650;48.106;-1.696;2022-07-18T09:54:41;32.20;72.90
22968;DHT22;11650;48.106;-1.696;2022-07-18T09:57:07;32.30;72.20
22968;DHT22;11650;48.106;-1.696;2022-07-18T09:59:35;32.40;71.30
22968;DHT22;11650;48.106;-1.696;2022-07-18T10:02:03;32.60;70.90
22968;DHT22;11650;48.106;-1.696;2022-07-18T10:04:29;32.60;70.80
22968;DHT22;11650;48.106;-1.696;2022-07-18T10:06:54;32.80;70.60
22968;DHT22;11650;48.106;-1.696;2022-07-18T10:09:20;33.00;70.30
22968;DHT22;11650;48.106;-1.696;2022-07-18T10:11:47;33.10;70.30
22968;DHT22;11650;48.106;-1.696;2022-07-18T10:14:12;33.20;69.30
22968;DHT22;11650;48.106;-1.696;2022-07-18T10:16:38;33.30;69.60
22968;DHT22;11650;48.106;-1.696;2022-07-18T10:19:06;33.40;69.30
22968;DHT22;11650;48.106;-1.696;2022-07-18T10:21:32;33.60;67.30
22968;DHT22;11650;48.106;-1.696;2022-07-18T10:24:01;33.60;66.10
22968;DHT22;11650;48.106;-1.696;2022-07-18T10:26:27;33.60;66.40
22968;DHT22;11650;48.106;-1.696;2022-07-18T10:31:25;33.80;66.20
22968;DHT22;11650;48.106;-1.696;2022-07-18T10:33:53;33.90;64.60
22968;DHT22;11650;48.106;-1.696;2022-07-18T10:36:23;34.10;63.80
22968;DHT22;11650;48.106;-1.696;2022-07-18T10:39:08;34.10;63.30
22968;DHT22;11650;48.106;-1.696;2022-07-18T10:57:34;35.00;62.30
22968;DHT22;11650;48.106;-1.696;2022-07-18T11:00:14;35.10;62.60
22968;DHT22;11650;48.106;-1.696;2022-07-18T11:02:44;35.20;61.10
22968;DHT22;11650;48.106;-1.696;2022-07-18T11:16:23;35.70;59.10
22968;DHT22;11650;48.106;-1.696;2022-07-18T11:21:31;35.90;59.00
22968;DHT22;11650;48.106;-1.696;2022-07-18T11:26:28;36.00;59.60
22968;DHT22;11650;48.106;-1.696;2022-07-18T11:28:59;36.30;60.00
22968;DHT22;11650;48.106;-1.696;2022-07-18T11:31:26;36.60;59.40
22968;DHT22;11650;48.106;-1.696;2022-07-18T11:33:52;36.50;59.00
22968;DHT22;11650;48.106;-1.696;2022-07-18T11:36:21;36.50;58.60
22968;DHT22;11650;48.106;-1.696;2022-07-18T11:38:52;36.60;58.60
22968;DHT22;11650;48.106;-1.696;2022-07-18T11:41:19;36.90;58.80
22968;DHT22;11650;48.106;-1.696;2022-07-18T11:43:46;36.90;59.00
22968;DHT22;11650;48.106;-1.696;2022-07-18T11:46:14;37.00;58.50
22968;DHT22;11650;48.106;-1.696;2022-07-18T11:48:41;37.10;58.50
22968;DHT22;11650;48.106;-1.696;2022-07-18T11:51:17;37.30;58.20
22968;DHT22;11650;48.106;-1.696;2022-07-18T11:53:49;37.30;58.40
22968;DHT22;11650;48.106;-1.696;2022-07-18T11:56:16;37.60;57.50
22968;DHT22;11650;48.106;-1.696;2022-07-18T11:58:44;37.60;58.00
22968;DHT22;11650;48.106;-1.696;2022-07-18T12:01:10;37.90;57.80
22968;DHT22;11650;48.106;-1.696;2022-07-18T12:03:40;37.80;57.90
22968;DHT22;11650;48.106;-1.696;2022-07-18T12:06:14;38.00;57.50
22968;DHT22;11650;48.106;-1.696;2022-07-18T12:08:41;38.10;57.40
22968;DHT22;11650;48.106;-1.696;2022-07-18T12:14:01;38.70;56.80
22968;DHT22;11650;48.106;-1.696;2022-07-18T12:27:11;38.80;54.50
22968;DHT22;11650;48.106;-1.696;2022-07-18T12:30:15;38.80;53.70
22968;DHT22;11650;48.106;-1.696;2022-07-18T12:32:55;39.10;54.10
22968;DHT22;11650;48.106;-1.696;2022-07-18T12:35:32;39.10;54.40
22968;DHT22;11650;48.106;-1.696;2022-07-18T12:43:33;39.40;54.20
22968;DHT22;11650;48.106;-1.696;2022-07-18T12:45:58;39.50;53.50
22968;DHT22;11650;48.106;-1.696;2022-07-18T12:48:26;39.40;53.50
22968;DHT22;11650;48.106;-1.696;2022-07-18T12:51:09;39.40;53.90
22968;DHT22;11650;48.106;-1.696;2022-07-18T12:53:38;39.60;53.50
22968;DHT22;11650;48.106;-1.696;2022-07-18T12:56:04;40.00;53.10
22968;DHT22;11650;48.106;-1.696;2022-07-18T12:58:29;40.10;53.40
22968;DHT22;11650;48.106;-1.696;2022-07-18T13:00:55;40.30;52.80
22968;DHT22;11650;48.106;-1.696;2022-07-18T13:03:21;40.40;52.70
22968;DHT22;11650;48.106;-1.696;2022-07-18T13:05:47;40.30;52.50
22968;DHT22;11650;48.106;-1.696;2022-07-18T13:08:13;40.30;52.80
22968;DHT22;11650;48.106;-1.696;2022-07-18T13:10:39;40.40;52.60
22968;DHT22;11650;48.106;-1.696;2022-07-18T13:13:06;40.70;52.50
22968;DHT22;11650;48.106;-1.696;2022-07-18T13:15:32;40.90;52.60
22968;DHT22;11650;48.106;-1.696;2022-07-18T13:17:58;40.80;52.50
22968;DHT22;11650;48.106;-1.696;2022-07-18T13:20:24;40.70;52.00
22968;DHT22;11650;48.106;-1.696;2022-07-18T13:22:51;40.90;51.60
22968;DHT22;11650;48.106;-1.696;2022-07-18T13:25:16;41.10;51.20
22968;DHT22;11650;48.106;-1.696;2022-07-18T13:27:42;41.60;51.10
22968;DHT22;11650;48.106;-1.696;2022-07-18T13:30:08;42.00;50.80
22968;DHT22;11650;48.106;-1.696;2022-07-18T13:32:34;42.60;50.50
22968;DHT22;11650;48.106;-1.696;2022-07-18T13:35:00;42.50;50.70
22968;DHT22;11650;48.106;-1.696;2022-07-18T13:37:26;42.50;50.60
22968;DHT22;11650;48.106;-1.696;2022-07-18T13:39:52;42.70;50.30
22968;DHT22;11650;48.106;-1.696;2022-07-18T13:42:18;43.00;50.30
22968;DHT22;11650;48.106;-1.696;2022-07-18T13:44:44;43.10;50.10
22968;DHT22;11650;48.106;-1.696;2022-07-18T13:47:15;42.80;50.40
22968;DHT22;11650;48.106;-1.696;2022-07-18T13:49:41;43.30;50.00
22968;DHT22;11650;48.106;-1.696;2022-07-18T13:52:07;43.80;49.60
22968;DHT22;11650;48.106;-1.696;2022-07-18T13:54:34;43.80;49.40
22968;DHT22;11650;48.106;-1.696;2022-07-18T13:56:59;44.10;48.90
22968;DHT22;11650;48.106;-1.696;2022-07-18T13:59:25;44.30;48.20
22968;DHT22;11650;48.106;-1.696;2022-07-18T14:01:51;44.00;49.00
22968;DHT22;11650;48.106;-1.696;2022-07-18T14:04:17;44.30;48.90
22968;DHT22;11650;48.106;-1.696;2022-07-18T14:06:44;44.40;48.70
22968;DHT22;11650;48.106;-1.696;2022-07-18T14:09:10;44.50;49.00
22968;DHT22;11650;48.106;-1.696;2022-07-18T14:11:36;44.90;48.40
22968;DHT22;11650;48.106;-1.696;2022-07-18T14:14:03;45.60;49.10
22968;DHT22;11650;48.106;-1.696;2022-07-18T14:16:30;45.70;48.90
22968;DHT22;11650;48.106;-1.696;2022-07-18T14:18:56;46.00;48.60
22968;DHT22;11650;48.106;-1.696;2022-07-18T14:21:21;45.90;48.70
22968;DHT22;11650;48.106;-1.696;2022-07-18T14:23:47;46.00;47.20
22968;DHT22;11650;48.106;-1.696;2022-07-18T14:26:13;45.90;47.80
22968;DHT22;11650;48.106;-1.696;2022-07-18T14:28:39;46.40;48.20
22968;DHT22;11650;48.106;-1.696;2022-07-18T14:31:05;46.10;47.50
22968;DHT22;11650;48.106;-1.696;2022-07-18T14:33:31;45.90;47.60
22968;DHT22;11650;48.106;-1.696;2022-07-18T14:35:56;45.70;47.60
22968;DHT22;11650;48.106;-1.696;2022-07-18T14:38:22;45.50;47.60
22968;DHT22;11650;48.106;-1.696;2022-07-18T14:40:48;45.40;47.60
22968;DHT22;11650;48.106;-1.696;2022-07-18T14:43:13;45.40;47.60
22968;DHT22;11650;48.106;-1.696;2022-07-18T14:45:39;46.00;47.70
22968;DHT22;11650;48.106;-1.696;2022-07-18T14:48:05;46.10;47.50
22968;DHT22;11650;48.106;-1.696;2022-07-18T14:50:31;46.40;47.40
22968;DHT22;11650;48.106;-1.696;2022-07-18T14:52:57;46.30;47.40
22968;DHT22;11650;48.106;-1.696;2022-07-18T14:55:23;46.50;47.00
22968;DHT22;11650;48.106;-1.696;2022-07-18T14:57:48;46.70;46.90
22968;DHT22;11650;48.106;-1.696;2022-07-18T15:00:14;46.90;57.80
22968;DHT22;11650;48.106;-1.696;2022-07-18T15:02:40;46.70;46.30
22968;DHT22;11650;48.106;-1.696;2022-07-18T15:05:06;46.80;46.60
22968;DHT22;11650;48.106;-1.696;2022-07-18T15:07:33;46.90;46.90
22968;DHT22;11650;48.106;-1.696;2022-07-18T15:09:59;47.00;46.70
22968;DHT22;11650;48.106;-1.696;2022-07-18T15:12:24;47.20;46.40
22968;DHT22;11650;48.106;-1.696;2022-07-18T15:14:50;47.40;45.80
22968;DHT22;11650;48.106;-1.696;2022-07-18T15:17:16;47.20;46.00
22968;DHT22;11650;48.106;-1.696;2022-07-18T15:19:42;47.20;46.10
22968;DHT22;11650;48.106;-1.696;2022-07-18T15:22:07;47.10;46.20
22968;DHT22;11650;48.106;-1.696;2022-07-18T15:24:34;47.20;46.30
22968;DHT22;11650;48.106;-1.696;2022-07-18T15:27:00;47.60;46.20
22968;DHT22;11650;48.106;-1.696;2022-07-18T15:29:26;47.60;46.30
22968;DHT22;11650;48.106;-1.696;2022-07-18T15:31:51;48.20;46.20
22968;DHT22;11650;48.106;-1.696;2022-07-18T15:34:17;48.20;45.40
22968;DHT22;11650;48.106;-1.696;2022-07-18T15:36:43;47.70;45.40
22968;DHT22;11650;48.106;-1.696;2022-07-18T15:39:08;47.70;45.40
22968;DHT22;11650;48.106;-1.696;2022-07-18T15:41:34;47.90;45.20
22968;DHT22;11650;48.106;-1.696;2022-07-18T15:43:59;47.40;46.00
22968;DHT22;11650;48.106;-1.696;2022-07-18T15:46:25;48.30;45.80
22968;DHT22;11650;48.106;-1.696;2022-07-18T15:48:51;48.70;45.00
22968;DHT22;11650;48.106;-1.696;2022-07-18T15:51:17;49.60;45.00
22968;DHT22;11650;48.106;-1.696;2022-07-18T15:53:43;50.20;44.80
22968;DHT22;11650;48.106;-1.696;2022-07-18T15:56:08;49.90;44.40
22968;DHT22;11650;48.106;-1.696;2022-07-18T15:58:34;50.10;44.50
22968;DHT22;11650;48.106;-1.696;2022-07-18T16:01:00;49.80;44.40
22968;DHT22;11650;48.106;-1.696;2022-07-18T16:03:26;49.10;44.40
22968;DHT22;11650;48.106;-1.696;2022-07-18T16:05:52;48.80;44.40
22968;DHT22;11650;48.106;-1.696;2022-07-18T16:08:17;48.70;44.30
22968;DHT22;11650;48.106;-1.696;2022-07-18T16:10:43;48.60;44.30